sensor_id;sensor_type;location;lat;lon;timestamp;pressure;altitude;pressure_sealevel;temperature;humidity
46778;BME280;32536;47.128;8.746;2023-08-07T00:02:18;91831.78;;;14.73;53.60
46778;BME280;32536;47.128;8.746;2023-08-07T00:04:45;91828.50;;;14.82;53.29
46778;BME280;32536;47.128;8.746;2023-08-07T00:07:12;91818.47;;;14.82;53.18
46778;BME280;32536;47.128;8.746;2023-08-07T00:09:38;91817.59;;;14.85;53.19
46778;BME280;32536;47.128;8.746;2023-08-07T00:12:05;91818.03;;;14.84;53.27
46778;BME280;32536;47.128;8.746;2023-08-07T00:14:32;91815.03;;;14.82;53.07
46778;BME280;32536;47.128;8.746;2023-08-07T00:16:59;91807.75;;;14.79;53.38
46778;BME280;32536;47.128;8.746;2023-08-07T00:19:25;91810.47;;;14.79;53.14
46778;BME280;32536;47.128;8.746;2023-08-07T00:21:52;91802.28;;;14.82;53.32
46778;BME280;32536;47.128;8.746;2023-08-07T00:24:19;91801.09;;;14.83;53.27
46778;BME280;32536;47.128;8.746;2023-08-07T00:26:45;91795.38;;;14.81;53.30
46778;BME280;32536;47.128;8.746;2023-08-07T00:29:12;91794.81;;;14.73;52.70
46778;BME280;32536;47.128;8.746;2023-08-07T00:31:39;91793.13;;;14.63;52.54
46778;BME280;32536;47.128;8.746;2023-08-07T00:34:05;91797.09;;;14.58;53.08
46778;BME280;32536;47.128;8.746;2023-08-07T00:36:32;91798.28;;;14.57;52.82
46778;BME280;32536;47.128;8.746;2023-08-07T00:39:01;91796.59;;;14.64;53.02
46778;BME280;32536;47.128;8.746;2023-08-07T00:41:29;91789.94;;;14.68;53.34
46778;BME280;32536;47.128;8.746;2023-08-07T00:43:56;91792.84;;;14.74;53.08
46778;BME280;32536;47.128;8.746;2023-08-07T00:46:23;91790.75;;;14.82;53.22
46778;BME280;32536;47.128;8.746;2023-08-07T00:48:51;91792.97;;;14.70;53.41
46778;BME280;32536;47.128;8.746;2023-08-07T00:51:20;91805.25;;;14.71;53.08
46778;BME280;32536;47.128;8.746;2023-08-07T00:53:48;91821.97;;;14.66;53.13
46778;BME280;32536;47.128;8.746;2023-08-07T00:56:15;91804.09;;;14.56;53.56
46778;BME280;32536;47.128;8.746;2023-08-07T00:58:42;91811.94;;;14.50;53.59
46778;BME280;32536;47.128;8.746;2023-08-07T01:01:09;91820.13;;;14.47;53.92
46778;BME280;32536;47.128;8.746;2023-08-07T01:03:35;91816.59;;;14.33;53.90
46778;BME280;32536;47.128;8.746;2023-08-07T01:06:02;91817.38;;;14.17;54.10
46778;BME280;32536;47.128;8.746;2023-08-07T01:08:29;91813.69;;;14.11;54.36
46778;BME280;32536;47.128;8.746;2023-08-07T01:11:21;91811.72;;;13.95;54.87
46778;BME280;32536;47.128;8.746;2023-08-07T01:14:32;91800.31;;;13.74;54.43
46778;BME280;32536;47.128;8.746;2023-08-07T01:17:08;91795.72;;;13.55;55.30
46778;BME280;32536;47.128;8.746;2023-08-07T01:19:37;91798.59;;;13.48;55.13
46778;BME280;32536;47.128;8.746;2023-08-07T01:22:08;91804.88;;;13.41;55.74
46778;BME280;32536;47.128;8.746;2023-08-07T01:24:44;91796.19;;;13.33;55.55
46778;BME280;32536;47.128;8.746;2023-08-07T01:30:09;91797.22;;;13.39;55.63
46778;BME280;32536;47.128;8.746;2023-08-07T01:33:31;91801.84;;;13.39;55.31
46778;BME280;32536;47.128;8.746;2023-08-07T01:36:01;91802.09;;;13.44;54.81
46778;BME280;32536;47.128;8.746;2023-08-07T01:38:30;91801.38;;;13.44;55.02
46778;BME280;32536;47.128;8.746;2023-08-07T01:40:58;91803.56;;;13.49;54.85
46778;BME280;32536;47.128;8.746;2023-08-07T01:43:25;91803.41;;;13.56;54.93
46778;BME280;32536;47.128;8.746;2023-08-07T01:45:53;91811.63;;;13.66;54.83
46778;BME280;32536;47.128;8.746;2023-08-07T01:48:19;91812.72;;;13.68;54.60
46778;BME280;32536;47.128;8.746;2023-08-07T01:50:46;91805.00;;;13.70;54.61
46778;BME280;32536;47.128;8.746;2023-08-07T01:53:13;91808.78;;;13.73;54.33
46778;BME280;32536;47.128;8.746;2023-08-07T01:55:40;91817.78;;;13.83;54.50
46778;BME280;32536;47.128;8.746;2023-08-07T01:58:06;91820.75;;;13.88;54.38
46778;BME280;32536;47.128;8.746;2023-08-07T02:00:33;91817.72;;;13.86;54.24
46778;BME280;32536;47.128;8.746;2023-08-07T02:03:00;91829.25;;;13.87;54.34
46778;BME280;32536;47.128;8.746;2023-08-07T02:05:26;91822.84;;;13.81;54.44
46778;BME280;32536;47.128;8.746;2023-08-07T02:07:53;91820.56;;;13.79;54.66
46778;BME280;32536;47.128;8.746;2023-08-07T02:10:22;91820.09;;;13.84;54.43
46778;BME280;32536;47.128;8.746;2023-08-07T02:12:49;91819.81;;;13.95;54.52
46778;BME280;32536;47.128;8.746;2023-08-07T02:15:16;91815.13;;;13.99;54.13
46778;BME280;32536;47.128;8.746;2023-08-07T02:17:43;91814.34;;;13.99;54.09
46778;BME280;32536;47.128;8.746;2023-08-07T02:20:10;91817.38;;;14.01;54.30
46778;BME280;32536;47.128;8.746;2023-08-07T02:22:37;91821.94;;;14.04;54.25
46778;BME280;32536;47.128;8.746;2023-08-07T02:25:03;91811.09;;;14.07;54.17
46778;BME280;32536;47.128;8.746;2023-08-07T02:27:31;91821.34;;;14.13;54.06
46778;BME280;32536;47.128;8.746;2023-08-07T02:29:57;91816.63;;;14.17;53.96
46778;BME280;32536;47.128;8.746;2023-08-07T02:32:24;91823.94;;;14.16;53.80
46778;BME280;32536;47.128;8.746;2023-08-07T02:34:51;91829.41;;;14.13;54.02
46778;BME280;32536;47.128;8.746;2023-08-07T02:37:17;91812.34;;;14.03;53.91
46778;BME280;32536;47.128;8.746;2023-08-07T02:39:44;91821.31;;;13.96;54.29
46778;BME280;32536;47.128;8.746;2023-08-07T02:42:11;91828.09;;;13.88;54.20
46778;BME280;32536;47.128;8.746;2023-08-07T02:44:38;91824.28;;;13.85;54.15
46778;BME280;32536;47.128;8.746;2023-08-07T02:47:04;91817.78;;;13.83;54.57
46778;BME280;32536;47.128;8.746;2023-08-07T02:49:31;91822.16;;;13.76;54.35
46778;BME280;32536;47.128;8.746;2023-08-07T02:51:58;91830.41;;;13.69;54.45
46778;BME280;32536;47.128;8.746;2023-08-07T02:54:25;91837.88;;;13.61;54.65
46778;BME280;32536;47.128;8.746;2023-08-07T02:56:51;91839.72;;;13.48;55.29
46778;BME280;32536;47.128;8.746;2023-08-07T02:59:18;91845.78;;;13.32;55.30
46778;BME280;32536;47.128;8.746;2023-08-07T03:01:45;91839.88;;;13.21;55.32
46778;BME280;32536;47.128;8.746;2023-08-07T03:04:12;91842.34;;;13.11;55.34
46778;BME280;32536;47.128;8.746;2023-08-07T03:06:38;91857.81;;;13.07;55.71
46778;BME280;32536;47.128;8.746;2023-08-07T03:09:05;91851.22;;;13.08;55.38
46778;BME280;32536;47.128;8.746;2023-08-07T03:11:32;91848.41;;;13.16;55.42
46778;BME280;32536;47.128;8.746;2023-08-07T03:13:58;91854.06;;;13.21;55.51
46778;BME280;32536;47.128;8.746;2023-08-07T03:16:25;91849.44;;;13.22;55.41
46778;BME280;32536;47.128;8.746;2023-08-07T03:18:52;91840.13;;;13.26;55.20
46778;BME280;32536;47.128;8.746;2023-08-07T03:21:19;91847.03;;;13.27;55.09
46778;BME280;32536;47.128;8.746;2023-08-07T03:23:45;91837.84;;;13.25;55.25
46778;BME280;32536;47.128;8.746;2023-08-07T03:26:12;91836.69;;;13.26;55.36
46778;BME280;32536;47.128;8.746;2023-08-07T03:28:39;91839.63;;;13.32;55.06
46778;BME280;32536;47.128;8.746;2023-08-07T03:31:06;91837.28;;;13.34;55.48
46778;BME280;32536;47.128;8.746;2023-08-07T03:33:33;91836.53;;;13.33;55.20
46778;BME280;32536;47.128;8.746;2023-08-07T03:35:59;91837.59;;;13.39;55.16
46778;BME280;32536;47.128;8.746;2023-08-07T03:38:26;91829.44;;;13.43;55.07
46778;BME280;32536;47.128;8.746;2023-08-07T03:40:53;91827.50;;;13.43;55.06
46778;BME280;32536;47.128;8.746;2023-08-07T03:43:19;91831.28;;;13.46;55.22
46778;BME280;32536;47.128;8.746;2023-08-07T03:45:46;91821.28;;;13.47;54.95
46778;BME280;32536;47.128;8.746;2023-08-07T03:48:13;91819.34;;;13.47;54.81
46778;BME280;32536;47.128;8.746;2023-08-07T03:50:40;91832.81;;;13.47;54.83
46778;BME280;32536;47.128;8.746;2023-08-07T03:53:07;91843.22;;;13.45;54.95
46778;BME280;32536;47.128;8.746;2023-08-07T03:55:34;91844.41;;;13.44;54.87
46778;BME280;32536;47.128;8.746;2023-08-07T03:58:01;91837.75;;;13.49;54.99
46778;BME280;32536;47.128;8.746;2023-08-07T04:00:28;91841.16;;;13.53;54.86
46778;BME280;32536;47.128;8.746;2023-08-07T04:02:55;91847.63;;;13.55;54.70
46778;BME280;32536;47.128;8.746;2023-08-07T04:05:22;91844.66;;;13.50;54.63
46778;BME280;32536;47.128;8.746;2023-08-07T04:07:49;91850.31;;;13.35;54.91
46778;BME280;32536;47.128;8.746;2023-08-07T04:10:15;91848.19;;;13.26;55.29
46778;BME280;32536;47.128;8.746;2023-08-07T04:12:42;91840.75;;;13.14;55.48
46778;BME280;32536;47.128;8.746;2023-08-07T04:15:09;91843.94;;;13.09;55.62
46778;BME280;32536;47.128;8.746;2023-08-07T04:17:36;91844.06;;;13.02;55.97
46778;BME280;32536;47.128;8.746;2023-08-07T04:20:03;91852.69;;;12.93;56.12
46778;BME280;32536;47.128;8.746;2023-08-07T04:22:31;91845.88;;;12.88;55.92
46778;BME280;32536;47.128;8.746;2023-08-07T04:24:57;91856.63;;;12.88;56.11
46778;BME280;32536;47.128;8.746;2023-08-07T04:27:26;91859.03;;;12.82;56.67
46778;BME280;32536;47.128;8.746;2023-08-07T04:29:52;91851.72;;;12.83;56.11
46778;BME280;32536;47.128;8.746;2023-08-07T04:32:19;91854.00;;;12.85;56.58
46778;BME280;32536;47.128;8.746;2023-08-07T04:34:46;91854.00;;;12.85;56.55
46778;BME280;32536;47.128;8.746;2023-08-07T04:37:12;91856.28;;;12.86;56.63
46778;BME280;32536;47.128;8.746;2023-08-07T04:39:39;91855.09;;;12.87;56.25
46778;BME280;32536;47.128;8.746;2023-08-07T04:42:06;91852.84;;;12.86;56.55
46778;BME280;32536;47.128;8.746;2023-08-07T04:44:33;91860.97;;;12.82;56.59
46778;BME280;32536;47.128;8.746;2023-08-07T04:46:59;91856.34;;;12.82;56.39
46778;BME280;32536;47.128;8.746;2023-08-07T04:49:26;91851.81;;;12.79;56.27
46778;BME280;32536;47.128;8.746;2023-08-07T04:51:53;91855.66;;;12.78;56.40
46778;BME280;32536;47.128;8.746;2023-08-07T04:54:20;91854.19;;;12.74;56.40
46778;BME280;32536;47.128;8.746;2023-08-07T04:56:46;91870.81;;;12.69;56.16
46778;BME280;32536;47.128;8.746;2023-08-07T04:59:13;91872.72;;;12.68;56.45
46778;BME280;32536;47.128;8.746;2023-08-07T05:01:40;91868.13;;;12.69;56.26
46778;BME280;32536;47.128;8.746;2023-08-07T05:04:06;91875.88;;;12.63;56.59
46778;BME280;32536;47.128;8.746;2023-08-07T05:06:33;91871.56;;;12.69;56.75
46778;BME280;32536;47.128;8.746;2023-08-07T05:09:00;91871.50;;;12.73;56.48
46778;BME280;32536;47.128;8.746;2023-08-07T05:11:26;91866.47;;;12.75;56.61
46778;BME280;32536;47.128;8.746;2023-08-07T05:13:53;91865.63;;;12.78;56.66
46778;BME280;32536;47.128;8.746;2023-08-07T05:16:20;91864.53;;;12.75;56.52
46778;BME280;32536;47.128;8.746;2023-08-07T05:18:46;91873.00;;;12.74;56.45
46778;BME280;32536;47.128;8.746;2023-08-07T05:21:13;91879.91;;;12.75;56.73
46778;BME280;32536;47.128;8.746;2023-08-07T05:23:40;91878.31;;;12.77;56.73
46778;BME280;32536;47.128;8.746;2023-08-07T05:26:06;91880.53;;;12.82;56.63
46778;BME280;32536;47.128;8.746;2023-08-07T05:28:33;91878.13;;;12.88;56.23
46778;BME280;32536;47.128;8.746;2023-08-07T05:31:00;91872.34;;;12.90;56.50
46778;BME280;32536;47.128;8.746;2023-08-07T05:33:27;91881.94;;;12.91;56.48
46778;BME280;32536;47.128;8.746;2023-08-07T05:35:53;91885.78;;;12.90;56.74
46778;BME280;32536;47.128;8.746;2023-08-07T05:38:21;91891.22;;;12.86;56.95
46778;BME280;32536;47.128;8.746;2023-08-07T05:40:48;91882.13;;;12.80;56.95
46778;BME280;32536;47.128;8.746;2023-08-07T05:43:15;91877.59;;;12.77;56.90
46778;BME280;32536;47.128;8.746;2023-08-07T05:45:42;91874.19;;;12.73;57.08
46778;BME280;32536;47.128;8.746;2023-08-07T05:48:10;91872.28;;;12.73;57.11
46778;BME280;32536;47.128;8.746;2023-08-07T05:50:37;91876.25;;;12.65;57.09
46778;BME280;32536;47.128;8.746;2023-08-07T05:53:04;91879.69;;;12.65;57.23
46778;BME280;32536;47.128;8.746;2023-08-07T05:55:30;91878.56;;;12.63;57.38
46778;BME280;32536;47.128;8.746;2023-08-07T05:57:57;91873.63;;;12.61;57.14
46778;BME280;32536;47.128;8.746;2023-08-07T06:00:24;91877.81;;;12.62;57.09
46778;BME280;32536;47.128;8.746;2023-08-07T06:02:51;91870.09;;;12.64;57.09
46778;BME280;32536;47.128;8.746;2023-08-07T06:05:17;91880.84;;;12.64;57.29
46778;BME280;32536;47.128;8.746;2023-08-07T06:07:44;91890.16;;;12.60;57.30
46778;BME280;32536;47.128;8.746;2023-08-07T06:10:11;91884.06;;;12.56;57.71
46778;BME280;32536;47.128;8.746;2023-08-07T06:12:37;91895.53;;;12.60;57.60
46778;BME280;32536;47.128;8.746;2023-08-07T06:15:04;91910.81;;;12.63;57.69
46778;BME280;32536;47.128;8.746;2023-08-07T06:17:31;91909.31;;;12.62;57.28
46778;BME280;32536;47.128;8.746;2023-08-07T06:19:58;91903.94;;;12.62;56.91
46778;BME280;32536;47.128;8.746;2023-08-07T06:22:25;91906.22;;;12.63;56.96
46778;BME280;32536;47.128;8.746;2023-08-07T06:24:52;91906.16;;;12.67;56.86
46778;BME280;32536;47.128;8.746;2023-08-07T06:27:21;91901.91;;;12.70;56.11
46778;BME280;32536;47.128;8.746;2023-08-07T06:29:48;91903.75;;;12.73;56.39
46778;BME280;32536;47.128;8.746;2023-08-07T06:32:14;91901.72;;;12.80;56.48
46778;BME280;32536;47.128;8.746;2023-08-07T06:34:43;91893.16;;;12.86;56.54
46778;BME280;32536;47.128;8.746;2023-08-07T06:37:12;91895.50;;;12.84;56.21
46778;BME280;32536;47.128;8.746;2023-08-07T06:39:38;91894.31;;;12.85;56.33
46778;BME280;32536;47.128;8.746;2023-08-07T06:42:05;91891.03;;;12.77;56.28
46778;BME280;32536;47.128;8.746;2023-08-07T06:44:32;91886.81;;;12.76;56.36
46778;BME280;32536;47.128;8.746;2023-08-07T06:46:59;91894.16;;;12.72;56.57
46778;BME280;32536;47.128;8.746;2023-08-07T06:49:25;91896.72;;;12.79;56.51
46778;BME280;32536;47.128;8.746;2023-08-07T06:51:52;91892.38;;;12.85;56.43
46778;BME280;32536;47.128;8.746;2023-08-07T06:54:19;91902.28;;;12.92;56.11
46778;BME280;32536;47.128;8.746;2023-08-07T06:56:45;91896.94;;;12.88;56.21
46778;BME280;32536;47.128;8.746;2023-08-07T06:59:12;91912.19;;;12.95;56.25
46778;BME280;32536;47.128;8.746;2023-08-07T07:01:39;91922.75;;;13.06;56.33
46778;BME280;32536;47.128;8.746;2023-08-07T07:04:06;91922.13;;;13.18;56.08
46778;BME280;32536;47.128;8.746;2023-08-07T07:06:33;91923.53;;;13.26;56.06
46778;BME280;32536;47.128;8.746;2023-08-07T07:09:00;91929.53;;;13.34;55.73
46778;BME280;32536;47.128;8.746;2023-08-07T07:11:26;91929.88;;;13.36;55.40
46778;BME280;32536;47.128;8.746;2023-08-07T07:13:53;91931.34;;;13.41;55.56
46778;BME280;32536;47.128;8.746;2023-08-07T07:16:20;91937.00;;;13.47;55.55
46778;BME280;32536;47.128;8.746;2023-08-07T07:18:49;91928.44;;;13.52;55.37
46778;BME280;32536;47.128;8.746;2023-08-07T07:21:17;91929.34;;;13.65;55.45
46778;BME280;32536;47.128;8.746;2023-08-07T07:23:44;91927.00;;;13.67;55.13
46778;BME280;32536;47.128;8.746;2023-08-07T07:26:10;91927.00;;;13.67;55.08
46778;BME280;32536;47.128;8.746;2023-08-07T07:28:37;91928.50;;;13.68;54.88
46778;BME280;32536;47.128;8.746;2023-08-07T07:31:04;91927.66;;;13.71;55.19
46778;BME280;32536;47.128;8.746;2023-08-07T07:33:31;91936.09;;;13.73;54.87
46778;BME280;32536;47.128;8.746;2023-08-07T07:35:57;91925.53;;;13.63;54.59
46778;BME280;32536;47.128;8.746;2023-08-07T07:38:24;91930.66;;;13.57;54.86
46778;BME280;32536;47.128;8.746;2023-08-07T07:40:52;91929.41;;;13.61;54.99
46778;BME280;32536;47.128;8.746;2023-08-07T07:43:22;91929.69;;;13.67;55.02
46778;BME280;32536;47.128;8.746;2023-08-07T07:45:49;91938.38;;;13.75;54.85
46778;BME280;32536;47.128;8.746;2023-08-07T07:48:16;91938.28;;;13.79;54.84
46778;BME280;32536;47.128;8.746;2023-08-07T07:50:43;91950.31;;;13.74;54.51
46778;BME280;32536;47.128;8.746;2023-08-07T07:53:09;91949.19;;;13.71;54.79
46778;BME280;32536;47.128;8.746;2023-08-07T07:55:36;91954.94;;;13.73;54.62
46778;BME280;32536;47.128;8.746;2023-08-07T07:58:03;91949.56;;;13.73;54.36
46778;BME280;32536;47.128;8.746;2023-08-07T08:00:30;91959.16;;;13.74;54.59
46778;BME280;32536;47.128;8.746;2023-08-07T08:02:57;91954.94;;;13.73;54.51
46778;BME280;32536;47.128;8.746;2023-08-07T08:05:23;91959.53;;;13.73;54.69
46778;BME280;32536;47.128;8.746;2023-08-07T08:07:50;91960.31;;;13.73;54.35
46778;BME280;32536;47.128;8.746;2023-08-07T08:10:17;91964.47;;;13.78;54.47
46778;BME280;32536;47.128;8.746;2023-08-07T08:12:43;91967.84;;;13.82;54.29
46778;BME280;32536;47.128;8.746;2023-08-07T08:15:10;91977.00;;;13.85;54.16
46778;BME280;32536;47.128;8.746;2023-08-07T08:17:37;91963.91;;;13.87;54.40
46778;BME280;32536;47.128;8.746;2023-08-07T08:20:05;91974.25;;;13.88;54.05
46778;BME280;32536;47.128;8.746;2023-08-07T08:22:33;91977.53;;;13.96;54.19
46778;BME280;32536;47.128;8.746;2023-08-07T08:25:00;91972.06;;;14.00;54.26
46778;BME280;32536;47.128;8.746;2023-08-07T08:27:27;91968.91;;;14.05;53.93
46778;BME280;32536;47.128;8.746;2023-08-07T08:29:54;91980.44;;;14.05;53.83
46778;BME280;32536;47.128;8.746;2023-08-07T08:32:21;91974.13;;;14.12;54.13
46778;BME280;32536;47.128;8.746;2023-08-07T08:34:47;91974.03;;;14.16;53.80
46778;BME280;32536;47.128;8.746;2023-08-07T08:37:15;91970.09;;;14.20;53.95
46778;BME280;32536;47.128;8.746;2023-08-07T08:39:42;91980.06;;;14.23;53.86
46778;BME280;32536;47.128;8.746;2023-08-07T08:42:11;91969.28;;;14.23;53.66
46778;BME280;32536;47.128;8.746;2023-08-07T08:44:39;91972.72;;;14.24;53.37
46778;BME280;32536;47.128;8.746;2023-08-07T08:47:07;91972.72;;;14.24;53.58
46778;BME280;32536;47.128;8.746;2023-08-07T08:49:40;91989.97;;;14.27;52.63
46778;BME280;32536;47.128;8.746;2023-08-07T08:52:13;91983.00;;;14.29;53.76
46778;BME280;32536;47.128;8.746;2023-08-07T08:54:41;91990.34;;;14.29;53.82
46778;BME280;32536;47.128;8.746;2023-08-07T08:57:09;91988.81;;;14.28;53.51
46778;BME280;32536;47.128;8.746;2023-08-07T08:59:37;91999.06;;;14.16;53.72
46778;BME280;32536;47.128;8.746;2023-08-07T09:02:06;91993.56;;;14.03;53.50
46778;BME280;32536;47.128;8.746;2023-08-07T09:04:34;91995.38;;;13.90;54.13
46778;BME280;32536;47.128;8.746;2023-08-07T09:07:01;91996.22;;;13.87;54.32
46778;BME280;32536;47.128;8.746;2023-08-07T09:09:28;92002.34;;;13.87;54.25
46778;BME280;32536;47.128;8.746;2023-08-07T09:11:57;91997.88;;;13.81;54.71
46778;BME280;32536;47.128;8.746;2023-08-07T09:14:26;92003.66;;;13.79;54.38
46778;BME280;32536;47.128;8.746;2023-08-07T09:16:58;92007.63;;;13.74;54.71
46778;BME280;32536;47.128;8.746;2023-08-07T09:19:26;92006.50;;;13.72;54.81
46778;BME280;32536;47.128;8.746;2023-08-07T09:21:53;92018.38;;;13.74;54.79
46778;BME280;32536;47.128;8.746;2023-08-07T09:24:20;92002.56;;;13.76;54.84
46778;BME280;32536;47.128;8.746;2023-08-07T09:26:51;92009.53;;;13.74;54.85
46778;BME280;32536;47.128;8.746;2023-08-07T09:29:20;92007.63;;;13.74;54.98
46778;BME280;32536;47.128;8.746;2023-08-07T09:31:47;92009.47;;;13.77;54.76
46778;BME280;32536;47.128;8.746;2023-08-07T09:34:14;92022.94;;;13.77;54.79
46778;BME280;32536;47.128;8.746;2023-08-07T09:36:43;92038.72;;;13.75;54.76
46778;BME280;32536;47.128;8.746;2023-08-07T09:39:10;92043.44;;;13.71;55.13
46778;BME280;32536;47.128;8.746;2023-08-07T09:41:37;92026.94;;;13.69;55.25
46778;BME280;32536;47.128;8.746;2023-08-07T09:44:07;92020.50;;;13.63;55.94
46778;BME280;32536;47.128;8.746;2023-08-07T09:46:42;92007.88;;;13.60;56.22
46778;BME280;32536;47.128;8.746;2023-08-07T09:49:10;92020.13;;;13.65;55.05
46778;BME280;32536;47.128;8.746;2023-08-07T09:51:43;92020.13;;;13.65;56.78
46778;BME280;32536;47.128;8.746;2023-08-07T09:54:11;92016.56;;;13.68;55.43
46778;BME280;32536;47.128;8.746;2023-08-07T09:56:39;92028.03;;;13.72;55.54
46778;BME280;32536;47.128;8.746;2023-08-07T09:59:07;92015.63;;;13.78;55.63
46778;BME280;32536;47.128;8.746;2023-08-07T10:01:37;92026.72;;;13.80;56.11
46778;BME280;32536;47.128;8.746;2023-08-07T10:04:05;92027.81;;;13.83;55.95
46778;BME280;32536;47.128;8.746;2023-08-07T10:06:34;92017.41;;;13.85;55.99
46778;BME280;32536;47.128;8.746;2023-08-07T10:09:01;92024.91;;;13.93;55.67
46778;BME280;32536;47.128;8.746;2023-08-07T10:11:29;92013.56;;;14.02;55.75
46778;BME280;32536;47.128;8.746;2023-08-07T10:13:57;92017.06;;;14.03;55.91
46778;BME280;32536;47.128;8.746;2023-08-07T10:16:26;92015.03;;;14.07;55.86
46778;BME280;32536;47.128;8.746;2023-08-07T10:18:56;92025.59;;;14.18;55.86
46778;BME280;32536;47.128;8.746;2023-08-07T10:21:24;92023.75;;;14.31;55.51
46778;BME280;32536;47.128;8.746;2023-08-07T10:23:53;92023.19;;;14.40;55.27
46778;BME280;32536;47.128;8.746;2023-08-07T10:26:23;92026.81;;;14.50;55.13
46778;BME280;32536;47.128;8.746;2023-08-07T10:28:51;92039.41;;;14.56;55.08
46778;BME280;32536;47.128;8.746;2023-08-07T10:31:20;92039.31;;;14.60;54.78
46778;BME280;32536;47.128;8.746;2023-08-07T10:33:49;92033.06;;;14.63;55.12
46778;BME280;32536;47.128;8.746;2023-08-07T10:36:16;92031.84;;;14.68;54.92
46778;BME280;32536;47.128;8.746;2023-08-07T10:38:43;92037.72;;;14.63;54.53
46778;BME280;32536;47.128;8.746;2023-08-07T10:41:14;92028.25;;;14.54;54.62
46778;BME280;32536;47.128;8.746;2023-08-07T10:43:42;92021.69;;;14.55;54.47
46778;BME280;32536;47.128;8.746;2023-08-07T10:46:12;92019.34;;;14.57;54.91
46778;BME280;32536;47.128;8.746;2023-08-07T10:48:43;92024.66;;;14.61;54.70
46778;BME280;32536;47.128;8.746;2023-08-07T10:51:17;92022.16;;;14.70;54.25
46778;BME280;32536;47.128;8.746;2023-08-07T10:53:45;92018.63;;;14.73;53.47
46778;BME280;32536;47.128;8.746;2023-08-07T10:56:18;92020.38;;;14.80;54.89
46778;BME280;32536;47.128;8.746;2023-08-07T10:58:56;92026.56;;;14.81;54.97
46778;BME280;32536;47.128;8.746;2023-08-07T11:04:06;92023.69;;;14.88;53.92
46778;BME280;32536;47.128;8.746;2023-08-07T11:06:43;92023.53;;;14.95;54.28
46778;BME280;32536;47.128;8.746;2023-08-07T11:09:12;92027.16;;;15.05;54.40
46778;BME280;32536;47.128;8.746;2023-08-07T11:11:44;92028.47;;;15.13;54.03
46778;BME280;32536;47.128;8.746;2023-08-07T11:14:16;92030.16;;;15.24;54.14
46778;BME280;32536;47.128;8.746;2023-08-07T11:16:45;92032.00;;;15.27;53.46
46778;BME280;32536;47.128;8.746;2023-08-07T11:19:15;92036.47;;;15.33;53.40
46778;BME280;32536;47.128;8.746;2023-08-07T11:21:44;92028.59;;;15.39;53.64
46778;BME280;32536;47.128;8.746;2023-08-07T11:24:13;92040.06;;;15.43;52.41
46778;BME280;32536;47.128;8.746;2023-08-07T11:26:42;92047.75;;;15.45;53.31
46778;BME280;32536;47.128;8.746;2023-08-07T11:29:18;92039.66;;;15.45;52.37
46778;BME280;32536;47.128;8.746;2023-08-07T11:31:45;92032.09;;;15.52;53.80
46778;BME280;32536;47.128;8.746;2023-08-07T11:34:12;92032.00;;;15.56;53.08
46778;BME280;32536;47.128;8.746;2023-08-07T11:36:42;92027.91;;;15.51;51.38
46778;BME280;32536;47.128;8.746;2023-08-07T11:39:10;92012.47;;;15.52;51.34
46778;BME280;32536;47.128;8.746;2023-08-07T11:41:37;92017.13;;;15.51;52.69
46778;BME280;32536;47.128;8.746;2023-08-07T11:44:07;92020.91;;;15.54;53.24
46778;BME280;32536;47.128;8.746;2023-08-07T11:46:34;92028.38;;;15.63;52.98
46778;BME280;32536;47.128;8.746;2023-08-07T11:49:01;92030.91;;;15.70;52.81
46778;BME280;32536;47.128;8.746;2023-08-07T11:51:30;92039.22;;;15.76;52.38
46778;BME280;32536;47.128;8.746;2023-08-07T11:53:57;92041.69;;;15.70;52.88
46778;BME280;32536;47.128;8.746;2023-08-07T11:56:24;92050.00;;;15.63;52.95
46778;BME280;32536;47.128;8.746;2023-08-07T11:58:52;92051.59;;;15.60;52.78
46778;BME280;32536;47.128;8.746;2023-08-07T12:01:21;92048.31;;;15.52;52.80
46778;BME280;32536;47.128;8.746;2023-08-07T12:03:56;92048.69;;;15.38;53.23
46778;BME280;32536;47.128;8.746;2023-08-07T12:06:32;92050.06;;;15.30;52.99
46778;BME280;32536;47.128;8.746;2023-08-07T12:08:59;92048.78;;;15.18;53.17
46778;BME280;32536;47.128;8.746;2023-08-07T12:11:29;92040.13;;;15.10;53.78
46778;BME280;32536;47.128;8.746;2023-08-07T12:13:56;92030.66;;;15.02;53.79
46778;BME280;32536;47.128;8.746;2023-08-07T12:16:25;92037.84;;;14.92;53.67
46778;BME280;32536;47.128;8.746;2023-08-07T12:18:52;92050.41;;;14.82;53.87
46778;BME280;32536;47.128;8.746;2023-08-07T12:21:21;92048.97;;;14.78;54.04
46778;BME280;32536;47.128;8.746;2023-08-07T12:23:55;92058.31;;;14.73;54.34
46778;BME280;32536;47.128;8.746;2023-08-07T12:26:22;92059.09;;;14.73;54.20
46778;BME280;32536;47.128;8.746;2023-08-07T12:28:49;92053.53;;;14.81;54.05
46778;BME280;32536;47.128;8.746;2023-08-07T12:31:17;92054.94;;;14.85;53.98
46778;BME280;32536;47.128;8.746;2023-08-07T12:33:44;92056.97;;;14.81;53.75
46778;BME280;32536;47.128;8.746;2023-08-07T12:39:16;92060.09;;;14.80;54.17
46778;BME280;32536;47.128;8.746;2023-08-07T12:41:43;92059.41;;;14.76;54.40
46778;BME280;32536;47.128;8.746;2023-08-07T12:44:10;92065.56;;;14.76;54.45
46778;BME280;32536;47.128;8.746;2023-08-07T12:46:38;92055.44;;;14.80;54.80
46778;BME280;32536;47.128;8.746;2023-08-07T12:49:08;92058.50;;;14.82;54.83
46778;BME280;32536;47.128;8.746;2023-08-07T12:51:35;92050.16;;;14.93;54.65
46778;BME280;32536;47.128;8.746;2023-08-07T12:54:02;92049.56;;;15.02;54.35
46778;BME280;32536;47.128;8.746;2023-08-07T12:56:28;92049.31;;;15.13;54.36
46778;BME280;32536;47.128;8.746;2023-08-07T12:58:55;92057.06;;;15.27;55.04
46778;BME280;32536;47.128;8.746;2023-08-07T13:01:22;92048.59;;;15.42;54.57
46778;BME280;32536;47.128;8.746;2023-08-07T13:03:49;92049.44;;;15.55;54.36
46778;BME280;32536;47.128;8.746;2023-08-07T13:06:15;92045.59;;;15.69;54.07
46778;BME280;32536;47.128;8.746;2023-08-07T13:08:42;92047.22;;;15.79;53.45
46778;BME280;32536;47.128;8.746;2023-08-07T13:11:09;92051.19;;;15.91;53.44
46778;BME280;32536;47.128;8.746;2023-08-07T13:13:36;92063.97;;;16.04;53.57